sensor_id;sensor_type;location;lat;lon;timestamp;temperature;humidity
41678;DHT22;27364;49.026;8.712;2023-02-01T00:01:44;5.30;99.90
41678;DHT22;27364;49.026;8.712;2023-02-01T00:04:10;5.30;99.90
41678;DHT22;27364;49.026;8.712;2023-02-01T00:06:36;5.30;99.90
41678;DHT22;27364;49.026;8.712;2023-02-01T00:09:01;5.30;99.90
41678;DHT22;27364;49.026;8.712;2023-02-01T00:11:27;5.40;99.90
41678;DHT22;27364;49.026;8.712;2023-02-01T00:13:53;5.30;99.90
41678;DHT22;27364;49.026;8.712;2023-02-01T00:16:21;5.30;99.90
41678;DHT22;27364;49.026;8.712;2023-02-01T00:18:49;5.30;99.90
41678;DHT22;27364;49.026;8.712;2023-02-01T00:21:17;5.30;99.90
41678;DHT22;27364;49.026;8.712;2023-02-01T00:23:43;5.30;99.90
41678;DHT22;27364;49.026;8.712;2023-02-01T00:26:21;5.40;99.90
41678;DHT22;27364;49.026;8.712;2023-02-01T00:28:48;5.40;99.90
41678;DHT22;27364;49.026;8.712;2023-02-01T00:31:14;5.40;99.90
41678;DHT22;27364;49.026;8.712;2023-02-01T00:33:40;5.40;99.90
41678;DHT22;27364;49.026;8.712;2023-02-01T00:36:07;5.30;99.90
41678;DHT22;27364;49.026;8.712;2023-02-01T00:38:36;5.40;99.90
41678;DHT22;27364;49.026;8.712;2023-02-01T00:41:07;5.50;99.90
41678;DHT22;27364;49.026;8.712;2023-02-01T00:43:33;5.40;99.90
41678;DHT22;27364;49.026;8.712;2023-02-01T00:46:00;5.40;99.90
41678;DHT22;27364;49.026;8.712;2023-02-01T00:48:26;5.40;99.90
41678;DHT22;27364;49.026;8.712;2023-02-01T00:50:51;5.50;99.90
41678;DHT22;27364;49.026;8.712;2023-02-01T00:53:18;5.50;99.90
41678;DHT22;27364;49.026;8.712;2023-02-01T00:55:47;5.50;99.90
41678;DHT22;27364;49.026;8.712;2023-02-01T00:58:13;5.40;99.90
41678;DHT22;27364;49.026;8.712;2023-02-01T01:00:39;5.50;99.90
41678;DHT22;27364;49.026;8.712;2023-02-01T01:03:04;5.60;99.90
41678;DHT22;27364;49.026;8.712;2023-02-01T01:05:46;5.50;99.90
41678;DHT22;27364;49.026;8.712;2023-02-01T01:08:12;5.50;99.90
41678;DHT22;27364;49.026;8.712;2023-02-01T01:10:38;5.50;99.90
41678;DHT22;27364;49.026;8.712;2023-02-01T01:13:04;5.60;99.90
41678;DHT22;27364;49.026;8.712;2023-02-01T01:15:30;5.50;99.90
41678;DHT22;27364;49.026;8.712;2023-02-01T01:17:55;5.60;99.90
41678;DHT22;27364;49.026;8.712;2023-02-01T01:20:21;5.60;99.90
41678;DHT22;27364;49.026;8.712;2023-02-01T01:22:47;5.50;99.90
41678;DHT22;27364;49.026;8.712;2023-02-01T01:25:13;5.50;99.90
41678;DHT22;27364;49.026;8.712;2023-02-01T01:27:39;5.50;99.90
41678;DHT22;27364;49.026;8.712;2023-02-01T01:30:06;5.50;99.90
41678;DHT22;27364;49.026;8.712;2023-02-01T01:32:33;5.50;99.90
41678;DHT22;27364;49.026;8.712;2023-02-01T01:34:59;5.60;99.90
41678;DHT22;27364;49.026;8.712;2023-02-01T01:37:24;5.50;99.90
41678;DHT22;27364;49.026;8.712;2023-02-01T01:39:50;5.60;99.90
41678;DHT22;27364;49.026;8.712;2023-02-01T01:42:15;5.60;99.90
41678;DHT22;27364;49.026;8.712;2023-02-01T01:45:06;5.50;99.90
41678;DHT22;27364;49.026;8.712;2023-02-01T01:47:44;5.50;99.90
41678;DHT22;27364;49.026;8.712;2023-02-01T01:50:14;5.60;99.90
41678;DHT22;27364;49.026;8.712;2023-02-01T01:52:43;5.40;99.90
41678;DHT22;27364;49.026;8.712;2023-02-01T01:55:13;5.50;99.90
41678;DHT22;27364;49.026;8.712;2023-02-01T01:57:42;5.50;99.90
41678;DHT22;27364;49.026;8.712;2023-02-01T02:00:12;5.40;99.90
41678;DHT22;27364;49.026;8.712;2023-02-01T02:02:40;5.50;99.90
41678;DHT22;27364;49.026;8.712;2023-02-01T02:05:08;5.60;99.90
41678;DHT22;27364;49.026;8.712;2023-02-01T02:07:37;5.60;99.90
41678;DHT22;27364;49.026;8.712;2023-02-01T02:10:06;5.60;99.90
41678;DHT22;27364;49.026;8.712;2023-02-01T02:12:32;5.60;99.90
41678;DHT22;27364;49.026;8.712;2023-02-01T02:14:59;5.60;99.90
41678;DHT22;27364;49.026;8.712;2023-02-01T02:17:40;5.70;99.90
41678;DHT22;27364;49.026;8.712;2023-02-01T02:26:01;5.50;99.90
41678;DHT22;27364;49.026;8.712;2023-02-01T02:34:38;5.50;99.90
41678;DHT22;27364;49.026;8.712;2023-02-01T02:40:36;5.60;99.90
41678;DHT22;27364;49.026;8.712;2023-02-01T02:44:14;5.70;99.90
41678;DHT22;27364;49.026;8.712;2023-02-01T02:46:35;5.80;99.90
41678;DHT22;27364;49.026;8.712;2023-02-01T02:49:25;5.70;99.90
41678;DHT22;27364;49.026;8.712;2023-02-01T02:52:13;5.70;99.90
41678;DHT22;27364;49.026;8.712;2023-02-01T02:55:01;5.80;99.90
41678;DHT22;27364;49.026;8.712;2023-02-01T02:57:38;5.90;99.90
41678;DHT22;27364;49.026;8.712;2023-02-01T03:00:28;5.90;99.90
41678;DHT22;27364;49.026;8.712;2023-02-01T03:03:13;5.90;99.90
41678;DHT22;27364;49.026;8.712;2023-02-01T03:05:57;5.80;99.90
41678;DHT22;27364;49.026;8.712;2023-02-01T03:08:28;5.80;99.90
41678;DHT22;27364;49.026;8.712;2023-02-01T03:11:00;5.80;99.90
41678;DHT22;27364;49.026;8.712;2023-02-01T03:14:00;5.80;99.90
41678;DHT22;27364;49.026;8.712;2023-02-01T03:16:47;5.80;99.90
41678;DHT22;27364;49.026;8.712;2023-02-01T03:21:59;5.80;99.90
41678;DHT22;27364;49.026;8.712;2023-02-01T03:24:50;5.90;99.90
41678;DHT22;27364;49.026;8.712;2023-02-01T03:27:24;5.90;99.90
41678;DHT22;27364;49.026;8.712;2023-02-01T03:30:16;5.80;99.90
41678;DHT22;27364;49.026;8.712;2023-02-01T03:32:44;5.90;99.90
41678;DHT22;27364;49.026;8.712;2023-02-01T03:35:41;5.80;99.90
41678;DHT22;27364;49.026;8.712;2023-02-01T03:43:32;5.80;99.90
41678;DHT22;27364;49.026;8.712;2023-02-01T03:46:03;5.80;99.90
41678;DHT22;27364;49.026;8.712;2023-02-01T03:48:30;5.70;99.90
41678;DHT22;27364;49.026;8.712;2023-02-01T03:50:59;5.80;99.90
41678;DHT22;27364;49.026;8.712;2023-02-01T03:53:26;5.70;99.90
41678;DHT22;27364;49.026;8.712;2023-02-01T03:55:54;5.80;99.90
41678;DHT22;27364;49.026;8.712;2023-02-01T03:58:21;5.80;99.90
41678;DHT22;27364;49.026;8.712;2023-02-01T04:00:56;5.80;99.90
41678;DHT22;27364;49.026;8.712;2023-02-01T04:03:22;5.90;99.90
41678;DHT22;27364;49.026;8.712;2023-02-01T04:05:49;5.90;99.90
41678;DHT22;27364;49.026;8.712;2023-02-01T04:08:15;5.90;99.90
41678;DHT22;27364;49.026;8.712;2023-02-01T04:10:41;5.80;99.90
41678;DHT22;27364;49.026;8.712;2023-02-01T04:13:06;5.80;99.90
41678;DHT22;27364;49.026;8.712;2023-02-01T04:15:32;5.90;99.90
41678;DHT22;27364;49.026;8.712;2023-02-01T04:18:00;5.90;99.90
41678;DHT22;27364;49.026;8.712;2023-02-01T04:20:25;5.80;99.90
41678;DHT22;27364;49.026;8.712;2023-02-01T04:22:51;5.80;99.90
41678;DHT22;27364;49.026;8.712;2023-02-01T04:25:16;5.70;99.90
41678;DHT22;27364;49.026;8.712;2023-02-01T04:27:42;5.70;99.90
41678;DHT22;27364;49.026;8.712;2023-02-01T04:30:08;5.70;99.90
41678;DHT22;27364;49.026;8.712;2023-02-01T04:32:38;5.60;99.90
41678;DHT22;27364;49.026;8.712;2023-02-01T04:35:03;5.60;99.90
41678;DHT22;27364;49.026;8.712;2023-02-01T04:37:29;5.50;99.90
41678;DHT22;27364;49.026;8.712;2023-02-01T04:39:55;5.60;99.90
41678;DHT22;27364;49.026;8.712;2023-02-01T04:42:20;5.70;99.90
41678;DHT22;27364;49.026;8.712;2023-02-01T04:44:46;5.60;99.90
41678;DHT22;27364;49.026;8.712;2023-02-01T04:47:12;5.60;99.90
41678;DHT22;27364;49.026;8.712;2023-02-01T04:49:37;5.60;99.90
41678;DHT22;27364;49.026;8.712;2023-02-01T04:52:03;5.60;99.90
41678;DHT22;27364;49.026;8.712;2023-02-01T04:54:29;5.50;99.90
41678;DHT22;27364;49.026;8.712;2023-02-01T04:56:55;5.50;99.90
41678;DHT22;27364;49.026;8.712;2023-02-01T04:59:20;5.40;99.90
41678;DHT22;27364;49.026;8.712;2023-02-01T05:01:46;5.30;99.90
41678;DHT22;27364;49.026;8.712;2023-02-01T05:04:11;5.30;99.90
41678;DHT22;27364;49.026;8.712;2023-02-01T05:06:37;5.20;99.90
41678;DHT22;27364;49.026;8.712;2023-02-01T05:09:03;5.20;99.90
41678;DHT22;27364;49.026;8.712;2023-02-01T05:11:28;5.10;99.90
41678;DHT22;27364;49.026;8.712;2023-02-01T05:14:12;5.20;99.90
41678;DHT22;27364;49.026;8.712;2023-02-01T05:16:38;5.30;99.90
41678;DHT22;27364;49.026;8.712;2023-02-01T05:19:04;5.30;99.90
41678;DHT22;27364;49.026;8.712;2023-02-01T05:21:29;5.30;99.90
41678;DHT22;27364;49.026;8.712;2023-02-01T05:23:55;5.20;99.90
41678;DHT22;27364;49.026;8.712;2023-02-01T05:26:39;5.20;99.90
41678;DHT22;27364;49.026;8.712;2023-02-01T05:29:06;5.20;99.90
41678;DHT22;27364;49.026;8.712;2023-02-01T05:31:32;5.20;99.90
41678;DHT22;27364;49.026;8.712;2023-02-01T05:33:57;5.30;99.90
41678;DHT22;27364;49.026;8.712;2023-02-01T05:36:23;5.20;99.90
41678;DHT22;27364;49.026;8.712;2023-02-01T05:38:48;5.20;99.90
41678;DHT22;27364;49.026;8.712;2023-02-01T05:41:14;5.10;99.90
41678;DHT22;27364;49.026;8.712;2023-02-01T05:43:40;5.20;99.90
41678;DHT22;27364;49.026;8.712;2023-02-01T05:46:05;5.10;99.90
41678;DHT22;27364;49.026;8.712;2023-02-01T05:48:31;5.10;99.90
41678;DHT22;27364;49.026;8.712;2023-02-01T05:50:57;5.10;99.90
41678;DHT22;27364;49.026;8.712;2023-02-01T05:53:22;5.20;99.90
41678;DHT22;27364;49.026;8.712;2023-02-01T05:55:48;5.30;99.90
41678;DHT22;27364;49.026;8.712;2023-02-01T05:58:14;5.30;99.90
41678;DHT22;27364;49.026;8.712;2023-02-01T06:00:39;5.30;99.90
41678;DHT22;27364;49.026;8.712;2023-02-01T06:03:06;5.30;99.90
41678;DHT22;27364;49.026;8.712;2023-02-01T06:05:31;5.30;99.90
41678;DHT22;27364;49.026;8.712;2023-02-01T06:07:57;5.40;99.90
41678;DHT22;27364;49.026;8.712;2023-02-01T06:10:23;5.30;99.90
41678;DHT22;27364;49.026;8.712;2023-02-01T06:12:49;5.30;99.90
41678;DHT22;27364;49.026;8.712;2023-02-01T06:15:15;5.30;99.90
41678;DHT22;27364;49.026;8.712;2023-02-01T06:17:44;5.40;99.90
41678;DHT22;27364;49.026;8.712;2023-02-01T06:20:11;5.40;99.90
41678;DHT22;27364;49.026;8.712;2023-02-01T06:22:37;5.40;99.90
41678;DHT22;27364;49.026;8.712;2023-02-01T06:25:04;5.40;99.90
41678;DHT22;27364;49.026;8.712;2023-02-01T06:27:30;5.40;99.90
41678;DHT22;27364;49.026;8.712;2023-02-01T06:29:56;5.30;99.90
41678;DHT22;27364;49.026;8.712;2023-02-01T06:32:22;5.30;99.90
41678;DHT22;27364;49.026;8.712;2023-02-01T06:34:49;5.20;99.90
41678;DHT22;27364;49.026;8.712;2023-02-01T06:37:14;5.30;99.90
41678;DHT22;27364;49.026;8.712;2023-02-01T06:39:40;5.30;99.90
41678;DHT22;27364;49.026;8.712;2023-02-01T06:42:06;5.30;99.90
41678;DHT22;27364;49.026;8.712;2023-02-01T06:44:31;5.30;99.90
41678;DHT22;27364;49.026;8.712;2023-02-01T06:46:57;5.30;99.90
41678;DHT22;27364;49.026;8.712;2023-02-01T06:49:22;5.30;99.90
41678;DHT22;27364;49.026;8.712;2023-02-01T06:51:48;5.20;99.90
41678;DHT22;27364;49.026;8.712;2023-02-01T06:54:14;5.30;99.90
41678;DHT22;27364;49.026;8.712;2023-02-01T06:56:40;5.20;99.90
41678;DHT22;27364;49.026;8.712;2023-02-01T06:59:06;5.30;99.90
41678;DHT22;27364;49.026;8.712;2023-02-01T07:01:33;5.30;99.90
41678;DHT22;27364;49.026;8.712;2023-02-01T07:03:59;5.40;99.90
41678;DHT22;27364;49.026;8.712;2023-02-01T07:06:24;5.30;99.90
41678;DHT22;27364;49.026;8.712;2023-02-01T07:08:50;5.30;99.90
41678;DHT22;27364;49.026;8.712;2023-02-01T07:11:17;5.30;99.90
41678;DHT22;27364;49.026;8.712;2023-02-01T07:13:44;5.40;99.90
41678;DHT22;27364;49.026;8.712;2023-02-01T07:16:12;5.40;99.90
41678;DHT22;27364;49.026;8.712;2023-02-01T07:18:38;5.40;99.90
41678;DHT22;27364;49.026;8.712;2023-02-01T07:21:04;5.40;99.90
41678;DHT22;27364;49.026;8.712;2023-02-01T07:23:30;5.40;99.90
41678;DHT22;27364;49.026;8.712;2023-02-01T07:25:57;5.40;99.90
41678;DHT22;27364;49.026;8.712;2023-02-01T07:28:24;5.50;99.90
41678;DHT22;27364;49.026;8.712;2023-02-01T07:30:50;5.40;99.90
41678;DHT22;27364;49.026;8.712;2023-02-01T07:33:23;5.30;99.90
41678;DHT22;27364;49.026;8.712;2023-02-01T07:35:50;5.40;99.90
41678;DHT22;27364;49.026;8.712;2023-02-01T07:38:16;5.30;99.90
41678;DHT22;27364;49.026;8.712;2023-02-01T07:40:41;5.40;99.90
41678;DHT22;27364;49.026;8.712;2023-02-01T07:43:07;5.40;99.90
41678;DHT22;27364;49.026;8.712;2023-02-01T07:45:34;5.30;99.90
41678;DHT22;27364;49.026;8.712;2023-02-01T07:48:00;5.30;99.90
41678;DHT22;27364;49.026;8.712;2023-02-01T07:50:25;5.30;99.90
41678;DHT22;27364;49.026;8.712;2023-02-01T07:52:51;5.30;99.90
41678;DHT22;27364;49.026;8.712;2023-02-01T07:55:19;5.40;99.90
41678;DHT22;27364;49.026;8.712;2023-02-01T07:57:44;5.40;99.90
41678;DHT22;27364;49.026;8.712;2023-02-01T08:00:10;5.50;99.90
41678;DHT22;27364;49.026;8.712;2023-02-01T08:02:57;5.50;99.90
41678;DHT22;27364;49.026;8.712;2023-02-01T08:05:22;5.50;99.90
41678;DHT22;27364;49.026;8.712;2023-02-01T08:07:51;5.50;99.90
41678;DHT22;27364;49.026;8.712;2023-02-01T08:10:17;5.50;99.90
41678;DHT22;27364;49.026;8.712;2023-02-01T08:12:44;5.50;99.90
41678;DHT22;27364;49.026;8.712;2023-02-01T08:15:17;5.50;99.90
41678;DHT22;27364;49.026;8.712;2023-02-01T08:17:56;5.60;99.90
41678;DHT22;27364;49.026;8.712;2023-02-01T08:20:24;5.70;99.90
41678;DHT22;27364;49.026;8.712;2023-02-01T08:22:55;5.70;99.90
41678;DHT22;27364;49.026;8.712;2023-02-01T08:25:25;5.60;99.90
41678;DHT22;27364;49.026;8.712;2023-02-01T08:27:51;5.60;99.90
41678;DHT22;27364;49.026;8.712;2023-02-01T08:30:17;5.80;99.90
41678;DHT22;27364;49.026;8.712;2023-02-01T08:32:44;5.70;99.90
41678;DHT22;27364;49.026;8.712;2023-02-01T08:35:10;5.80;99.90
41678;DHT22;27364;49.026;8.712;2023-02-01T08:37:35;5.80;99.90
41678;DHT22;27364;49.026;8.712;2023-02-01T08:40:02;5.80;99.90
41678;DHT22;27364;49.026;8.712;2023-02-01T08:42:32;5.80;99.90
41678;DHT22;27364;49.026;8.712;2023-02-01T08:45:22;5.80;99.90
41678;DHT22;27364;49.026;8.712;2023-02-01T08:47:55;5.70;99.90
41678;DHT22;27364;49.026;8.712;2023-02-01T08:50:23;5.80;99.90
41678;DHT22;27364;49.026;8.712;2023-02-01T08:52:55;5.70;99.90
41678;DHT22;27364;49.026;8.712;2023-02-01T08:55:45;5.80;99.90
41678;DHT22;27364;49.026;8.712;2023-02-01T08:58:10;5.70;99.90
41678;DHT22;27364;49.026;8.712;2023-02-01T09:00:37;5.70;99.90
41678;DHT22;27364;49.026;8.712;2023-02-01T09:03:11;5.70;99.90
41678;DHT22;27364;49.026;8.712;2023-02-01T09:05:41;5.70;99.90
41678;DHT22;27364;49.026;8.712;2023-02-01T09:08:09;5.60;99.90
41678;DHT22;27364;49.026;8.712;2023-02-01T09:10:36;5.60;99.90
41678;DHT22;27364;49.026;8.712;2023-02-01T09:13:01;5.60;99.90
41678;DHT22;27364;49.026;8.712;2023-02-01T09:15:34;5.60;99.90
41678;DHT22;27364;49.026;8.712;2023-02-01T09:18:00;5.70;99.90
41678;DHT22;27364;49.026;8.712;2023-02-01T09:20:26;5.60;99.90
41678;DHT22;27364;49.026;8.712;2023-02-01T09:22:52;5.70;99.90
41678;DHT22;27364;49.026;8.712;2023-02-01T09:25:19;5.70;99.90
41678;DHT22;27364;49.026;8.712;2023-02-01T09:27:48;5.90;99.90
41678;DHT22;27364;49.026;8.712;2023-02-01T09:30:13;6.00;99.90
41678;DHT22;27364;49.026;8.712;2023-02-01T09:32:39;6.10;99.90
41678;DHT22;27364;49.026;8.712;2023-02-01T09:35:05;6.20;99.90
41678;DHT22;27364;49.026;8.712;2023-02-01T09:37:31;6.30;99.90
41678;DHT22;27364;49.026;8.712;2023-02-01T09:40:00;6.30;99.90
41678;DHT22;27364;49.026;8.712;2023-02-01T09:48:16;6.40;99.90
41678;DHT22;27364;49.026;8.712;2023-02-01T09:50:50;6.40;99.90
41678;DHT22;27364;49.026;8.712;2023-02-01T09:53:29;6.40;99.90
41678;DHT22;27364;49.026;8.712;2023-02-01T09:56:06;6.50;99.90
41678;DHT22;27364;49.026;8.712;2023-02-01T09:58:35;6.50;99.90
41678;DHT22;27364;49.026;8.712;2023-02-01T10:01:04;6.60;99.90
41678;DHT22;27364;49.026;8.712;2023-02-01T10:03:33;6.70;99.90
41678;DHT22;27364;49.026;8.712;2023-02-01T10:20:06;6.40;99.90
41678;DHT22;27364;49.026;8.712;2023-02-01T10:22:43;6.40;99.90
41678;DHT22;27364;49.026;8.712;2023-02-01T10:25:23;6.30;99.90
41678;DHT22;27364;49.026;8.712;2023-02-01T10:28:11;6.30;99.90
41678;DHT22;27364;49.026;8.712;2023-02-01T10:30:44;6.30;99.90
41678;DHT22;27364;49.026;8.712;2023-02-01T10:33:56;6.20;99.90
41678;DHT22;27364;49.026;8.712;2023-02-01T10:36:16;6.20;99.90
41678;DHT22;27364;49.026;8.712;2023-02-01T10:39:04;6.20;99.90
41678;DHT22;27364;49.026;8.712;2023-02-01T10:41:35;6.30;99.90
41678;DHT22;27364;49.026;8.712;2023-02-01T10:44:04;6.40;99.90
41678;DHT22;27364;49.026;8.712;2023-02-01T10:46:32;6.30;99.90
41678;DHT22;27364;49.026;8.712;2023-02-01T10:49:00;6.40;99.90
41678;DHT22;27364;49.026;8.712;2023-02-01T10:51:32;6.60;99.90
41678;DHT22;27364;49.026;8.712;2023-02-01T10:54:16;6.70;99.90
41678;DHT22;27364;49.026;8.712;2023-02-01T10:56:44;6.70;99.90
41678;DHT22;27364;49.026;8.712;2023-02-01T10:59:19;6.70;99.90
41678;DHT22;27364;49.026;8.712;2023-02-01T11:01:47;6.70;99.90
41678;DHT22;27364;49.026;8.712;2023-02-01T11:04:15;6.60;99.90
41678;DHT22;27364;49.026;8.712;2023-02-01T11:06:44;6.70;99.90
41678;DHT22;27364;49.026;8.712;2023-02-01T11:14:38;6.50;99.90
41678;DHT22;27364;49.026;8.712;2023-02-01T11:17:17;6.60;99.90
41678;DHT22;27364;49.026;8.712;2023-02-01T11:20:16;6.60;99.90
41678;DHT22;27364;49.026;8.712;2023-02-01T11:22:54;6.60;99.90
41678;DHT22;27364;49.026;8.712;2023-02-01T11:25:21;6.60;99.90
41678;DHT22;27364;49.026;8.712;2023-02-01T11:27:49;6.50;99.90
41678;DHT22;27364;49.026;8.712;2023-02-01T11:30:38;6.60;99.90
41678;DHT22;27364;49.026;8.712;2023-02-01T11:33:14;6.50;99.90
41678;DHT22;27364;49.026;8.712;2023-02-01T11:35:41;6.60;99.90
41678;DHT22;27364;49.026;8.712;2023-02-01T11:38:30;6.60;99.90
41678;DHT22;27364;49.026;8.712;2023-02-01T11:41:23;6.50;99.90
41678;DHT22;27364;49.026;8.712;2023-02-01T11:44:01;6.50;99.90
41678;DHT22;27364;49.026;8.712;2023-02-01T11:46:41;6.50;99.90
41678;DHT22;27364;49.026;8.712;2023-02-01T11:49:25;6.50;99.90
41678;DHT22;27364;49.026;8.712;2023-02-01T11:52:06;6.50;99.90
41678;DHT22;27364;49.026;8.712;2023-02-01T11:57:42;6.50;99.90
41678;DHT22;27364;49.026;8.712;2023-02-01T12:03:21;6.40;99.90
41678;DHT22;27364;49.026;8.712;2023-02-01T12:06:37;6.50;99.90
41678;DHT22;27364;49.026;8.712;2023-02-01T12:12:08;6.50;99.90
41678;DHT22;27364;49.026;8.712;2023-02-01T12:20:39;6.50;99.90
41678;DHT22;27364;49.026;8.712;2023-02-01T12:23:15;6.40;99.90
41678;DHT22;27364;49.026;8.712;2023-02-01T12:29:03;6.50;99.90
41678;DHT22;27364;49.026;8.712;2023-02-01T12:34:43;6.50;99.90
41678;DHT22;27364;49.026;8.712;2023-02-01T12:45:39;6.60;99.90
41678;DHT22;27364;49.026;8.712;2023-02-01T12:48:34;6.70;99.90
41678;DHT22;27364;49.026;8.712;2023-02-01T12:51:09;6.70;99.90
41678;DHT22;27364;49.026;8.712;2023-02-01T12:53:53;6.70;99.90
41678;DHT22;27364;49.026;8.712;2023-02-01T12:56:29;6.60;99.90
41678;DHT22;27364;49.026;8.712;2023-02-01T12:58:59;6.60;99.90
41678;DHT22;27364;49.026;8.712;2023-02-01T13:01:34;6.60;99.90
41678;DHT22;27364;49.026;8.712;2023-02-01T13:04:44;6.50;99.90
41678;DHT22;27364;49.026;8.712;2023-02-01T13:07:21;6.50;99.90
41678;DHT22;27364;49.026;8.712;2023-02-01T13:09:57;6.50;99.90
41678;DHT22;27364;49.026;8.712;2023-02-01T13:15:02;6.60;99.90
41678;DHT22;27364;49.026;8.712;2023-02-01T13:17:31;6.70;99.90
41678;DHT22;27364;49.026;8.712;2023-02-01T13:20:24;6.70;99.90
41678;DHT22;27364;49.026;8.712;2023-02-01T13:23:08;6.70;99.90
41678;DHT22;27364;49.026;8.712;2023-02-01T13:25:47;6.60;99.90
41678;DHT22;27364;49.026;8.712;2023-02-01T13:28:24;6.50;99.90
41678;DHT22;27364;49.026;8.712;2023-02-01T13:31:20;6.60;99.90
41678;DHT22;27364;49.026;8.712;2023-02-01T13:36:31;6.50;99.90
41678;DHT22;27364;49.026;8.712;2023-02-01T13:42:25;6.70;99.90
41678;DHT22;27364;49.026;8.712;2023-02-01T13:44:55;6.70;99.90
41678;DHT22;27364;49.026;8.712;2023-02-01T13:47:25;6.80;99.90
41678;DHT22;27364;49.026;8.712;2023-02-01T13:49:53;6.80;99.90
41678;DHT22;27364;49.026;8.712;2023-02-01T13:52:27;6.70;99.90
41678;DHT22;27364;49.026;8.712;2023-02-01T13:55:02;6.70;99.90
41678;DHT22;27364;49.026;8.712;2023-02-01T13:57:35;6.70;99.90
41678;DHT22;27364;49.026;8.712;2023-02-01T14:00:27;6.70;99.90
41678;DHT22;27364;49.026;8.712;2023-02-01T14:08:13;6.70;99.90
41678;DHT22;27364;49.026;8.712;2023-02-01T14:13:33;6.60;99.90
41678;DHT22;27364;49.026;8.712;2023-02-01T14:24:01;6.40;99.90
41678;DHT22;27364;49.026;8.712;2023-02-01T14:26:46;6.40;99.90
41678;DHT22;27364;49.026;8.712;2023-02-01T14:32:01;6.40;99.90
41678;DHT22;27364;49.026;8.712;2023-02-01T14:34:35;6.40;99.90
41678;DHT22;27364;49.026;8.712;2023-02-01T14:37:07;6.40;99.90
41678;DHT22;27364;49.026;8.712;2023-02-01T14:47:55;6.50;99.90
41678;DHT22;27364;49.026;8.712;2023-02-01T14:50:42;6.50;99.90
41678;DHT22;27364;49.026;8.712;2023-02-01T15:09:23;6.60;99.90
41678;DHT22;27364;49.026;8.712;2023-02-01T15:14:23;6.60;99.90
41678;DHT22;27364;49.026;8.712;2023-02-01T15:16:49;6.70;99.90
41678;DHT22;27364;49.026;8.712;2023-02-01T15:19:23;6.60;99.90
41678;DHT22;27364;49.026;8.712;2023-02-01T15:21:52;6.60;99.90
41678;DHT22;27364;49.026;8.712;2023-02-01T15:24:36;6.60;99.90
41678;DHT22;27364;49.026;8.712;2023-02-01T15:27:03;6.70;99.90
41678;DHT22;27364;49.026;8.712;2023-02-01T15:29:30;6.70;99.90
41678;DHT22;27364;49.026;8.712;2023-02-01T15:31:58;6.70;99.90
41678;DHT22;27364;49.026;8.712;2023-02-01T15:34:47;6.60;99.90
41678;DHT22;27364;49.026;8.712;2023-02-01T15:37:14;6.60;99.90
41678;DHT22;27364;49.026;8.712;2023-02-01T15:42:54;6.70;99.90
41678;DHT22;27364;49.026;8.712;2023-02-01T15:45:25;6.60;99.90
41678;DHT22;27364;49.026;8.712;2023-02-01T15:47:52;6.60;99.90
41678;DHT22;27364;49.026;8.712;2023-02-01T15:50:19;6.60;99.90
41678;DHT22;27364;49.026;8.712;2023-02-01T15:52:48;6.50;99.90
41678;DHT22;27364;49.026;8.712;2023-02-01T15:55:46;6.60;99.90
41678;DHT22;27364;49.026;8.712;2023-02-01T15:58:20;6.60;99.90
41678;DHT22;27364;49.026;8.712;2023-02-01T16:00:48;6.60;99.90
41678;DHT22;27364;49.026;8.712;2023-02-01T16:03:35;6.50;99.90
41678;DHT22;27364;49.026;8.712;2023-02-01T16:06:08;6.50;99.90
41678;DHT22;27364;49.026;8.712;2023-02-01T16:08:34;6.50;99.90
41678;DHT22;27364;49.026;8.712;2023-02-01T16:13:34;6.60;99.90
41678;DHT22;27364;49.026;8.712;2023-02-01T16:15:59;6.60;99.90
41678;DHT22;27364;49.026;8.712;2023-02-01T16:18:25;6.50;99.90
41678;DHT22;27364;49.026;8.712;2023-02-01T16:20:51;6.50;99.90
41678;DHT22;27364;49.026;8.712;2023-02-01T16:23:16;6.60;99.90
41678;DHT22;27364;49.026;8.712;2023-02-01T16:25:42;6.60;99.90
41678;DHT22;27364;49.026;8.712;2023-02-01T16:28:08;6.60;99.90
41678;DHT22;27364;49.026;8.712;2023-02-01T16:30:34;6.60;99.90
41678;DHT22;27364;49.026;8.712;2023-02-01T16:33:01;6.50;99.90
41678;DHT22;27364;49.026;8.712;2023-02-01T16:35:37;6.50;99.90
41678;DHT22;27364;49.026;8.712;2023-02-01T16:38:14;6.60;99.90
41678;DHT22;27364;49.026;8.712;2023-02-01T16:40:42;6.50;99.90
41678;DHT22;27364;49.026;8.712;2023-02-01T16:43:14;6.60;99.90
41678;DHT22;27364;49.026;8.712;2023-02-01T16:45:59;6.50;99.90
41678;DHT22;27364;49.026;8.712;2023-02-01T16:48:33;6.50;99.90
41678;DHT22;27364;49.026;8.712;2023-02-01T16:51:07;6.60;99.90
41678;DHT22;27364;49.026;8.712;2023-02-01T16:53:35;6.70;99.90
41678;DHT22;27364;49.026;8.712;2023-02-01T16:56:00;6.70;99.90
41678;DHT22;27364;49.026;8.712;2023-02-01T16:58:28;6.70;99.90
41678;DHT22;27364;49.026;8.712;2023-02-01T17:00:54;6.60;99.90
41678;DHT22;27364;49.026;8.712;2023-02-01T17:03:20;6.60;99.90
41678;DHT22;27364;49.026;8.712;2023-02-01T17:05:55;6.60;99.90
41678;DHT22;27364;49.026;8.712;2023-02-01T17:08:31;6.70;99.90
41678;DHT22;27364;49.026;8.712;2023-02-01T17:10:57;6.70;99.90
41678;DHT22;27364;49.026;8.712;2023-02-01T17:13:22;6.60;99.90
41678;DHT22;27364;49.026;8.712;2023-02-01T17:16:15;6.70;99.90
41678;DHT22;27364;49.026;8.712;2023-02-01T17:18:37;6.70;99.90
41678;DHT22;27364;49.026;8.712;2023-02-01T17:21:04;6.70;99.90
41678;DHT22;27364;49.026;8.712;2023-02-01T17:23:30;6.60;99.90
41678;DHT22;27364;49.026;8.712;2023-02-01T17:25:56;6.70;99.90
41678;DHT22;27364;49.026;8.712;2023-02-01T17:28:23;6.70;99.90
41678;DHT22;27364;49.026;8.712;2023-02-01T17:30:49;6.60;99.90
41678;DHT22;27364;49.026;8.712;2023-02-01T17:33:31;6.60;99.90
41678;DHT22;27364;49.026;8.712;2023-02-01T17:35:57;6.50;99.90
41678;DHT22;27364;49.026;8.712;2023-02-01T17:38:24;6.50;99.90
41678;DHT22;27364;49.026;8.712;2023-02-01T17:40:50;6.50;99.90
41678;DHT22;27364;49.026;8.712;2023-02-01T17:43:22;6.40;99.90
41678;DHT22;27364;49.026;8.712;2023-02-01T17:45:51;6.40;99.90
41678;DHT22;27364;49.026;8.712;2023-02-01T17:48:19;6.40;99.90
41678;DHT22;27364;49.026;8.712;2023-02-01T17:50:47;6.40;99.90
41678;DHT22;27364;49.026;8.712;2023-02-01T17:53:15;6.40;99.90
41678;DHT22;27364;49.026;8.712;2023-02-01T17:55:44;6.40;99.90
41678;DHT22;27364;49.026;8.712;2023-02-01T17:58:12;6.40;99.90
41678;DHT22;27364;49.026;8.712;2023-02-01T18:00:39;6.40;99.90
41678;DHT22;27364;49.026;8.712;2023-02-01T18:03:04;6.50;99.90
41678;DHT22;27364;49.026;8.712;2023-02-01T18:05:41;6.40;99.90
41678;DHT22;27364;49.026;8.712;2023-02-01T18:08:09;6.50;99.90
41678;DHT22;27364;49.026;8.712;2023-02-01T18:10:34;6.50;99.90
41678;DHT22;27364;49.026;8.712;2023-02-01T18:13:01;6.50;99.90
41678;DHT22;27364;49.026;8.712;2023-02-01T18:15:29;6.40;99.90
41678;DHT22;27364;49.026;8.712;2023-02-01T18:17:55;6.50;99.90
41678;DHT22;27364;49.026;8.712;2023-02-01T18:20:22;6.50;99.90
41678;DHT22;27364;49.026;8.712;2023-02-01T18:22:48;6.50;99.90
41678;DHT22;27364;49.026;8.712;2023-02-01T18:25:25;6.40;99.90
41678;DHT22;27364;49.026;8.712;2023-02-01T18:27:53;6.40;99.90